createdAt,value
2023-03-12T00:06:11.357Z,62
2023-03-12T00:34:45.539Z,62
2023-03-12T01:04:02.966Z,64
2023-03-12T01:33:11.078Z,64
2023-03-12T02:02:29.012Z,64
2023-03-12T02:31:47.108Z,65
2023-03-12T03:00:43.498Z,67
2023-03-12T03:29:58.791Z,70
2023-03-12T03:59:10.358Z,72
2023-03-12T04:28:27.944Z,72
2023-03-12T04:57:44.820Z,77
2023-03-12T05:26:54.489Z,86
2023-03-12T05:56:15.132Z,85
2023-03-12T06:25:34.591Z,87
2023-03-12T06:54:55.023Z,89
2023-03-12T07:24:13.533Z,90
2023-03-12T07:53:32.667Z,94
2023-03-12T08:22:56.081Z,95
2023-03-12T08:52:17.785Z,97
2023-03-12T09:21:40.769Z,99
2023-03-12T09:51:03.132Z,90
2023-03-12T10:20:36.684Z,85
2023-03-12T10:50:08.641Z,76
2023-03-12T11:19:30.704Z,70
2023-03-12T11:48:50.870Z,70
2023-03-12T12:18:00.089Z,71
2023-03-12T12:47:12.509Z,73
2023-03-12T13:16:32.515Z,67
2023-03-12T13:45:55.769Z,61
2023-03-12T14:15:14.936Z,58
2023-03-12T14:44:41.602Z,58
2023-03-12T15:14:05.724Z,57
2023-03-12T15:43:25.626Z,58
2023-03-12T16:12:50.901Z,58
2023-03-12T16:42:17.256Z,61
2023-03-12T17:11:25.891Z,60
2023-03-12T17:40:40.073Z,61
2023-03-12T18:09:54.736Z,62
2023-03-12T18:39:10.647Z,63
2023-03-12T19:08:25.704Z,63
2023-03-12T19:37:34.851Z,63
2023-03-12T20:06:51.300Z,65
2023-03-12T20:36:11.964Z,67
2023-03-12T21:05:25.485Z,69
2023-03-12T21:34:32.132Z,69
2023-03-12T22:03:55.346Z,68
2023-03-12T22:33:16.950Z,67
2023-03-12T23:02:28.637Z,67
2023-03-12T23:31:46.920Z,66
